Hooper Bay Airport Hooper Bay US
ICAO: PAHP
IATA:
Category: Medium
Scheduled Services:

Elevation: 13 ft
TransAlt. 18000 ft.

Airport Communications:
AWOS 3:135.1
CTAF:123
KENAI RDO:122.4
TWEB:115.2

PAHP Zoom In..

If you have problems with the map follow the link
https://www.worldairports.se/pages/airport.php?
ICAO=PAHP

Runways:

(A) RW 13 length 3300 ft width 75 ft
---- / hdg 136

(B) RW 31 length 3300 ft width 75 ft
---- / hdg 316

Location; PAHP
Day. 24 / Time. 11.53 Zulu
* Altimeter: 29.50
* Temperature: 00° c. 32°f.
* Wind from: 140° Speed 26 kn.
Dewpoint: -01° c.
Visibility: 1 Statute Miles.
Clouds: Scattered 800 ft.
Clouds: Overcast 1800 ft.
Conditions: Light Snow.Conditions: Mist.

PAHP 241153Z AUTO 14026KT 1SM -SN BR SCT008 OVC018 00/M01 A2950 RMK AO2 PK WND 14031/1145 UPB24E34SNB34 P0000 FZRANO


Wind From 140°
Speed 26 kn.

 
 
jpsmedia.com for Web Design worldairports.se 2019   terms of use